sensor_id;sensor_type;location;lat;lon;timestamp;P1;durP1;ratioP1;P2;durP2;ratioP2
77091;SDS011;66032;48.252;11.638;2023-05-07T00:02:02;7.30;;;4.65;;
77091;SDS011;66032;48.252;11.638;2023-05-07T00:04:30;8.13;;;6.00;;
77091;SDS011;66032;48.252;11.638;2023-05-07T00:07:03;9.50;;;5.90;;
77091;SDS011;66032;48.252;11.638;2023-05-07T00:09:30;7.90;;;5.85;;
77091;SDS011;66032;48.252;11.638;2023-05-07T00:11:58;7.60;;;5.75;;
77091;SDS011;66032;48.252;11.638;2023-05-07T00:14:25;9.43;;;6.13;;
77091;SDS011;66032;48.252;11.638;2023-05-07T00:16:52;8.43;;;6.00;;
77091;SDS011;66032;48.252;11.638;2023-05-07T00:19:19;9.80;;;5.63;;
77091;SDS011;66032;48.252;11.638;2023-05-07T00:21:47;8.77;;;6.60;;
77091;SDS011;66032;48.252;11.638;2023-05-07T00:24:14;12.40;;;7.13;;
77091;SDS011;66032;48.252;11.638;2023-05-07T00:26:41;8.52;;;6.07;;
77091;SDS011;66032;48.252;11.638;2023-05-07T00:29:08;8.82;;;6.97;;
77091;SDS011;66032;48.252;11.638;2023-05-07T00:31:36;8.82;;;6.68;;
77091;SDS011;66032;48.252;11.638;2023-05-07T00:34:03;9.15;;;6.50;;
77091;SDS011;66032;48.252;11.638;2023-05-07T00:36:30;7.65;;;5.70;;
77091;SDS011;66032;48.252;11.638;2023-05-07T00:38:59;6.10;;;4.65;;
77091;SDS011;66032;48.252;11.638;2023-05-07T00:41:27;7.15;;;5.32;;
77091;SDS011;66032;48.252;11.638;2023-05-07T00:43:54;7.40;;;5.72;;
77091;SDS011;66032;48.252;11.638;2023-05-07T00:46:22;6.80;;;4.35;;
77091;SDS011;66032;48.252;11.638;2023-05-07T00:48:50;9.50;;;6.22;;
77091;SDS011;66032;48.252;11.638;2023-05-07T00:51:17;8.93;;;6.40;;
77091;SDS011;66032;48.252;11.638;2023-05-07T00:53:45;7.82;;;6.22;;
77091;SDS011;66032;48.252;11.638;2023-05-07T00:56:13;6.22;;;4.57;;
77091;SDS011;66032;48.252;11.638;2023-05-07T00:58:40;6.97;;;4.97;;
77091;SDS011;66032;48.252;11.638;2023-05-07T01:01:08;6.80;;;4.78;;
77091;SDS011;66032;48.252;11.638;2023-05-07T01:03:35;8.73;;;5.85;;
77091;SDS011;66032;48.252;11.638;2023-05-07T01:06:03;6.72;;;5.13;;
77091;SDS011;66032;48.252;11.638;2023-05-07T01:08:33;5.90;;;4.40;;
77091;SDS011;66032;48.252;11.638;2023-05-07T01:11:01;8.55;;;5.30;;
77091;SDS011;66032;48.252;11.638;2023-05-07T01:13:30;8.45;;;5.80;;
77091;SDS011;66032;48.252;11.638;2023-05-07T01:15:58;7.00;;;5.28;;
77091;SDS011;66032;48.252;11.638;2023-05-07T01:18:25;7.22;;;5.22;;
77091;SDS011;66032;48.252;11.638;2023-05-07T01:20:54;11.60;;;8.70;;
77091;SDS011;66032;48.252;11.638;2023-05-07T01:23:25;11.07;;;8.55;;
77091;SDS011;66032;48.252;11.638;2023-05-07T01:25:54;7.75;;;5.68;;
77091;SDS011;66032;48.252;11.638;2023-05-07T01:28:24;8.70;;;6.30;;
77091;SDS011;66032;48.252;11.638;2023-05-07T01:30:58;7.18;;;5.15;;
77091;SDS011;66032;48.252;11.638;2023-05-07T01:35:59;8.45;;;6.93;;
77091;SDS011;66032;48.252;11.638;2023-05-07T01:38:29;7.85;;;6.10;;
77091;SDS011;66032;48.252;11.638;2023-05-07T01:40:57;8.43;;;6.22;;
77091;SDS011;66032;48.252;11.638;2023-05-07T01:43:24;7.40;;;5.80;;
77091;SDS011;66032;48.252;11.638;2023-05-07T01:45:52;12.43;;;8.90;;
77091;SDS011;66032;48.252;11.638;2023-05-07T01:48:19;15.43;;;11.45;;
77091;SDS011;66032;48.252;11.638;2023-05-07T01:50:47;13.75;;;9.88;;
77091;SDS011;66032;48.252;11.638;2023-05-07T01:53:15;13.95;;;10.75;;
77091;SDS011;66032;48.252;11.638;2023-05-07T01:55:43;12.43;;;9.55;;
77091;SDS011;66032;48.252;11.638;2023-05-07T01:58:10;15.40;;;11.80;;
77091;SDS011;66032;48.252;11.638;2023-05-07T02:00:39;13.88;;;10.15;;
77091;SDS011;66032;48.252;11.638;2023-05-07T02:03:07;11.18;;;9.23;;
77091;SDS011;66032;48.252;11.638;2023-05-07T02:05:45;12.90;;;9.77;;
77091;SDS011;66032;48.252;11.638;2023-05-07T02:08:32;11.88;;;9.32;;
77091;SDS011;66032;48.252;11.638;2023-05-07T02:10:59;11.30;;;8.50;;
77091;SDS011;66032;48.252;11.638;2023-05-07T02:13:28;8.38;;;5.63;;
77091;SDS011;66032;48.252;11.638;2023-05-07T02:16:01;7.15;;;4.70;;
77091;SDS011;66032;48.252;11.638;2023-05-07T02:18:29;8.40;;;6.20;;
77091;SDS011;66032;48.252;11.638;2023-05-07T02:20:56;8.00;;;5.10;;
77091;SDS011;66032;48.252;11.638;2023-05-07T02:23:24;7.97;;;5.85;;
77091;SDS011;66032;48.252;11.638;2023-05-07T02:25:51;10.23;;;6.43;;
77091;SDS011;66032;48.252;11.638;2023-05-07T02:28:19;7.80;;;5.40;;
77091;SDS011;66032;48.252;11.638;2023-05-07T02:30:53;13.32;;;10.52;;
77091;SDS011;66032;48.252;11.638;2023-05-07T02:33:20;13.68;;;10.93;;
77091;SDS011;66032;48.252;11.638;2023-05-07T02:35:47;13.55;;;10.55;;
77091;SDS011;66032;48.252;11.638;2023-05-07T02:38:15;12.57;;;8.60;;
77091;SDS011;66032;48.252;11.638;2023-05-07T02:40:43;11.40;;;8.40;;
77091;SDS011;66032;48.252;11.638;2023-05-07T02:43:10;9.35;;;6.75;;
77091;SDS011;66032;48.252;11.638;2023-05-07T02:45:41;10.85;;;6.72;;
77091;SDS011;66032;48.252;11.638;2023-05-07T02:48:11;10.13;;;7.28;;
77091;SDS011;66032;48.252;11.638;2023-05-07T02:50:38;9.38;;;6.50;;
77091;SDS011;66032;48.252;11.638;2023-05-07T02:53:06;10.07;;;7.43;;
77091;SDS011;66032;48.252;11.638;2023-05-07T02:55:33;10.95;;;7.40;;
77091;SDS011;66032;48.252;11.638;2023-05-07T02:58:00;11.02;;;8.30;;
77091;SDS011;66032;48.252;11.638;2023-05-07T03:00:31;11.60;;;8.30;;
77091;SDS011;66032;48.252;11.638;2023-05-07T03:03:10;10.57;;;7.88;;
77091;SDS011;66032;48.252;11.638;2023-05-07T03:05:38;11.00;;;7.40;;
77091;SDS011;66032;48.252;11.638;2023-05-07T03:08:05;12.75;;;8.43;;
77091;SDS011;66032;48.252;11.638;2023-05-07T03:10:32;12.27;;;9.40;;
77091;SDS011;66032;48.252;11.638;2023-05-07T03:13:00;12.48;;;8.82;;
77091;SDS011;66032;48.252;11.638;2023-05-07T03:15:28;11.60;;;8.65;;
77091;SDS011;66032;48.252;11.638;2023-05-07T03:17:55;9.52;;;6.75;;
77091;SDS011;66032;48.252;11.638;2023-05-07T03:20:23;9.13;;;6.53;;
77091;SDS011;66032;48.252;11.638;2023-05-07T03:22:50;12.10;;;8.75;;
77091;SDS011;66032;48.252;11.638;2023-05-07T03:25:17;10.70;;;7.40;;
77091;SDS011;66032;48.252;11.638;2023-05-07T03:27:45;9.82;;;6.18;;
77091;SDS011;66032;48.252;11.638;2023-05-07T03:30:12;9.90;;;6.90;;
77091;SDS011;66032;48.252;11.638;2023-05-07T03:32:39;9.93;;;7.20;;
77091;SDS011;66032;48.252;11.638;2023-05-07T03:35:10;9.00;;;6.82;;
77091;SDS011;66032;48.252;11.638;2023-05-07T03:37:39;11.38;;;8.07;;
77091;SDS011;66032;48.252;11.638;2023-05-07T03:40:08;9.32;;;6.80;;
77091;SDS011;66032;48.252;11.638;2023-05-07T03:42:44;13.25;;;9.02;;
77091;SDS011;66032;48.252;11.638;2023-05-07T03:45:13;12.57;;;8.95;;
77091;SDS011;66032;48.252;11.638;2023-05-07T03:47:44;15.25;;;9.57;;
77091;SDS011;66032;48.252;11.638;2023-05-07T03:50:15;12.70;;;9.05;;
77091;SDS011;66032;48.252;11.638;2023-05-07T03:52:43;8.98;;;7.25;;
77091;SDS011;66032;48.252;11.638;2023-05-07T03:55:10;12.85;;;9.15;;
77091;SDS011;66032;48.252;11.638;2023-05-07T03:57:43;11.27;;;8.20;;
77091;SDS011;66032;48.252;11.638;2023-05-07T04:00:10;11.25;;;8.02;;
77091;SDS011;66032;48.252;11.638;2023-05-07T04:02:47;12.45;;;8.77;;
77091;SDS011;66032;48.252;11.638;2023-05-07T04:05:21;14.10;;;9.30;;
77091;SDS011;66032;48.252;11.638;2023-05-07T04:07:54;11.45;;;8.40;;
77091;SDS011;66032;48.252;11.638;2023-05-07T04:10:28;12.30;;;8.82;;
77091;SDS011;66032;48.252;11.638;2023-05-07T04:12:58;12.38;;;8.32;;
77091;SDS011;66032;48.252;11.638;2023-05-07T04:15:27;12.65;;;9.10;;
77091;SDS011;66032;48.252;11.638;2023-05-07T04:17:55;9.13;;;6.70;;
77091;SDS011;66032;48.252;11.638;2023-05-07T04:20:24;11.55;;;8.20;;
77091;SDS011;66032;48.252;11.638;2023-05-07T04:22:57;9.07;;;7.25;;
77091;SDS011;66032;48.252;11.638;2023-05-07T04:25:25;13.43;;;8.80;;
77091;SDS011;66032;48.252;11.638;2023-05-07T04:28:00;10.75;;;7.90;;
77091;SDS011;66032;48.252;11.638;2023-05-07T04:30:28;13.35;;;9.82;;
77091;SDS011;66032;48.252;11.638;2023-05-07T04:32:56;10.05;;;8.05;;
77091;SDS011;66032;48.252;11.638;2023-05-07T04:35:26;10.57;;;8.25;;
77091;SDS011;66032;48.252;11.638;2023-05-07T04:37:54;10.25;;;8.18;;
77091;SDS011;66032;48.252;11.638;2023-05-07T04:40:21;10.30;;;7.22;;
77091;SDS011;66032;48.252;11.638;2023-05-07T04:42:49;10.00;;;7.68;;
77091;SDS011;66032;48.252;11.638;2023-05-07T04:45:17;11.45;;;8.45;;
77091;SDS011;66032;48.252;11.638;2023-05-07T04:47:46;11.13;;;8.27;;
77091;SDS011;66032;48.252;11.638;2023-05-07T04:50:13;10.43;;;8.15;;
77091;SDS011;66032;48.252;11.638;2023-05-07T04:52:42;8.98;;;7.47;;
77091;SDS011;66032;48.252;11.638;2023-05-07T04:55:10;10.68;;;7.10;;
77091;SDS011;66032;48.252;11.638;2023-05-07T04:57:39;7.72;;;6.55;;
77091;SDS011;66032;48.252;11.638;2023-05-07T05:00:10;8.05;;;6.20;;
77091;SDS011;66032;48.252;11.638;2023-05-07T05:02:44;9.60;;;6.72;;
77091;SDS011;66032;48.252;11.638;2023-05-07T05:05:15;6.78;;;5.93;;
77091;SDS011;66032;48.252;11.638;2023-05-07T05:07:44;8.30;;;6.32;;
77091;SDS011;66032;48.252;11.638;2023-05-07T05:10:11;8.15;;;6.05;;
77091;SDS011;66032;48.252;11.638;2023-05-07T05:12:40;8.18;;;6.40;;
77091;SDS011;66032;48.252;11.638;2023-05-07T05:15:07;9.55;;;6.30;;
77091;SDS011;66032;48.252;11.638;2023-05-07T05:17:35;9.90;;;6.32;;
77091;SDS011;66032;48.252;11.638;2023-05-07T05:20:07;7.30;;;5.95;;
77091;SDS011;66032;48.252;11.638;2023-05-07T05:22:38;6.47;;;5.65;;
77091;SDS011;66032;48.252;11.638;2023-05-07T05:25:06;6.35;;;5.47;;
77091;SDS011;66032;48.252;11.638;2023-05-07T05:27:34;7.20;;;5.60;;
77091;SDS011;66032;48.252;11.638;2023-05-07T05:30:04;6.50;;;5.72;;
77091;SDS011;66032;48.252;11.638;2023-05-07T05:32:33;7.18;;;5.45;;
77091;SDS011;66032;48.252;11.638;2023-05-07T05:35:01;6.78;;;5.75;;
77091;SDS011;66032;48.252;11.638;2023-05-07T05:37:29;4.82;;;4.30;;
77091;SDS011;66032;48.252;11.638;2023-05-07T05:40:01;6.97;;;5.97;;
77091;SDS011;66032;48.252;11.638;2023-05-07T05:42:29;5.60;;;4.72;;
77091;SDS011;66032;48.252;11.638;2023-05-07T05:44:57;5.25;;;4.40;;
77091;SDS011;66032;48.252;11.638;2023-05-07T05:47:25;5.18;;;4.13;;
77091;SDS011;66032;48.252;11.638;2023-05-07T05:49:54;5.25;;;4.40;;
77091;SDS011;66032;48.252;11.638;2023-05-07T05:52:22;5.07;;;4.40;;
77091;SDS011;66032;48.252;11.638;2023-05-07T05:54:51;4.88;;;3.83;;
77091;SDS011;66032;48.252;11.638;2023-05-07T05:57:18;7.55;;;4.10;;
77091;SDS011;66032;48.252;11.638;2023-05-07T05:59:46;5.68;;;4.68;;
77091;SDS011;66032;48.252;11.638;2023-05-07T06:02:14;6.13;;;4.68;;
77091;SDS011;66032;48.252;11.638;2023-05-07T06:04:42;6.00;;;4.68;;
77091;SDS011;66032;48.252;11.638;2023-05-07T06:07:12;5.57;;;4.30;;
77091;SDS011;66032;48.252;11.638;2023-05-07T06:09:40;6.53;;;4.70;;
77091;SDS011;66032;48.252;11.638;2023-05-07T06:12:07;5.03;;;4.10;;
77091;SDS011;66032;48.252;11.638;2023-05-07T06:14:35;4.80;;;4.18;;
77091;SDS011;66032;48.252;11.638;2023-05-07T06:17:02;5.72;;;4.50;;
77091;SDS011;66032;48.252;11.638;2023-05-07T06:19:30;5.53;;;4.95;;
77091;SDS011;66032;48.252;11.638;2023-05-07T06:21:59;4.80;;;4.20;;
77091;SDS011;66032;48.252;11.638;2023-05-07T06:24:30;5.40;;;4.90;;
77091;SDS011;66032;48.252;11.638;2023-05-07T06:26:57;6.40;;;4.20;;
77091;SDS011;66032;48.252;11.638;2023-05-07T06:29:27;6.43;;;3.95;;
77091;SDS011;66032;48.252;11.638;2023-05-07T06:31:54;4.75;;;3.50;;
77091;SDS011;66032;48.252;11.638;2023-05-07T06:34:22;4.35;;;3.50;;
77091;SDS011;66032;48.252;11.638;2023-05-07T06:36:50;5.20;;;4.05;;
77091;SDS011;66032;48.252;11.638;2023-05-07T06:39:27;5.10;;;3.67;;
77091;SDS011;66032;48.252;11.638;2023-05-07T06:41:54;4.88;;;4.07;;
77091;SDS011;66032;48.252;11.638;2023-05-07T06:44:30;6.05;;;4.05;;
77091;SDS011;66032;48.252;11.638;2023-05-07T06:47:10;3.67;;;3.08;;
77091;SDS011;66032;48.252;11.638;2023-05-07T06:49:41;4.83;;;3.60;;
77091;SDS011;66032;48.252;11.638;2023-05-07T06:52:08;5.50;;;3.25;;
77091;SDS011;66032;48.252;11.638;2023-05-07T06:54:35;4.93;;;3.20;;
77091;SDS011;66032;48.252;11.638;2023-05-07T06:57:03;4.00;;;3.00;;
77091;SDS011;66032;48.252;11.638;2023-05-07T06:59:31;3.85;;;2.90;;
77091;SDS011;66032;48.252;11.638;2023-05-07T07:01:58;5.60;;;3.40;;
77091;SDS011;66032;48.252;11.638;2023-05-07T07:04:26;3.78;;;2.92;;
77091;SDS011;66032;48.252;11.638;2023-05-07T07:07:01;5.13;;;3.42;;
77091;SDS011;66032;48.252;11.638;2023-05-07T07:09:28;3.70;;;3.20;;
77091;SDS011;66032;48.252;11.638;2023-05-07T07:11:56;4.85;;;3.38;;
77091;SDS011;66032;48.252;11.638;2023-05-07T07:14:24;4.10;;;3.13;;
77091;SDS011;66032;48.252;11.638;2023-05-07T07:16:53;3.90;;;3.20;;
77091;SDS011;66032;48.252;11.638;2023-05-07T07:19:22;5.10;;;3.25;;
77091;SDS011;66032;48.252;11.638;2023-05-07T07:21:52;4.40;;;3.20;;
77091;SDS011;66032;48.252;11.638;2023-05-07T07:24:20;5.05;;;3.30;;
77091;SDS011;66032;48.252;11.638;2023-05-07T07:26:52;4.18;;;3.17;;
77091;SDS011;66032;48.252;11.638;2023-05-07T07:29:20;5.80;;;3.67;;
77091;SDS011;66032;48.252;11.638;2023-05-07T07:31:48;4.90;;;3.40;;
77091;SDS011;66032;48.252;11.638;2023-05-07T07:34:19;4.90;;;3.20;;
77091;SDS011;66032;48.252;11.638;2023-05-07T07:36:47;4.55;;;3.70;;
77091;SDS011;66032;48.252;11.638;2023-05-07T07:39:17;4.10;;;2.95;;
77091;SDS011;66032;48.252;11.638;2023-05-07T07:41:46;4.93;;;3.30;;
77091;SDS011;66032;48.252;11.638;2023-05-07T07:44:14;4.03;;;3.13;;
77091;SDS011;66032;48.252;11.638;2023-05-07T07:46:47;5.25;;;2.95;;
77091;SDS011;66032;48.252;11.638;2023-05-07T07:49:15;4.63;;;3.13;;
77091;SDS011;66032;48.252;11.638;2023-05-07T07:51:43;3.78;;;2.90;;
77091;SDS011;66032;48.252;11.638;2023-05-07T07:54:12;4.18;;;2.88;;
77091;SDS011;66032;48.252;11.638;2023-05-07T07:56:40;5.30;;;3.80;;
77091;SDS011;66032;48.252;11.638;2023-05-07T07:59:08;3.42;;;3.00;;
77091;SDS011;66032;48.252;11.638;2023-05-07T08:01:38;5.78;;;3.15;;
77091;SDS011;66032;48.252;11.638;2023-05-07T08:04:06;4.20;;;3.50;;
77091;SDS011;66032;48.252;11.638;2023-05-07T08:06:37;3.70;;;3.13;;
77091;SDS011;66032;48.252;11.638;2023-05-07T08:09:07;3.95;;;3.55;;
77091;SDS011;66032;48.252;11.638;2023-05-07T08:11:37;4.40;;;3.35;;
77091;SDS011;66032;48.252;11.638;2023-05-07T08:14:05;4.13;;;2.92;;
77091;SDS011;66032;48.252;11.638;2023-05-07T08:16:32;4.70;;;3.20;;
77091;SDS011;66032;48.252;11.638;2023-05-07T08:19:01;4.25;;;3.10;;
77091;SDS011;66032;48.252;11.638;2023-05-07T08:21:28;3.70;;;3.30;;
77091;SDS011;66032;48.252;11.638;2023-05-07T08:23:57;5.22;;;4.68;;
77091;SDS011;66032;48.252;11.638;2023-05-07T08:26:25;4.20;;;3.33;;
77091;SDS011;66032;48.252;11.638;2023-05-07T08:28:52;5.85;;;4.50;;
77091;SDS011;66032;48.252;11.638;2023-05-07T08:31:19;4.00;;;2.72;;
77091;SDS011;66032;48.252;11.638;2023-05-07T08:33:47;4.47;;;3.13;;
77091;SDS011;66032;48.252;11.638;2023-05-07T08:36:14;4.18;;;3.72;;
77091;SDS011;66032;48.252;11.638;2023-05-07T08:38:41;5.70;;;3.50;;
77091;SDS011;66032;48.252;11.638;2023-05-07T08:41:11;6.97;;;3.00;;
77091;SDS011;66032;48.252;11.638;2023-05-07T08:43:42;3.85;;;3.35;;
77091;SDS011;66032;48.252;11.638;2023-05-07T08:46:19;4.20;;;3.80;;
77091;SDS011;66032;48.252;11.638;2023-05-07T08:48:53;4.80;;;3.30;;
77091;SDS011;66032;48.252;11.638;2023-05-07T08:51:20;4.50;;;3.13;;
77091;SDS011;66032;48.252;11.638;2023-05-07T08:53:49;4.00;;;2.88;;
77091;SDS011;66032;48.252;11.638;2023-05-07T08:56:23;4.50;;;3.00;;
77091;SDS011;66032;48.252;11.638;2023-05-07T08:58:52;3.88;;;3.10;;
77091;SDS011;66032;48.252;11.638;2023-05-07T09:01:24;3.75;;;3.03;;
77091;SDS011;66032;48.252;11.638;2023-05-07T09:03:53;4.32;;;3.10;;
77091;SDS011;66032;48.252;11.638;2023-05-07T09:06:22;5.20;;;2.80;;
77091;SDS011;66032;48.252;11.638;2023-05-07T09:08:53;4.32;;;3.30;;
77091;SDS011;66032;48.252;11.638;2023-05-07T09:11:24;3.83;;;3.42;;
77091;SDS011;66032;48.252;11.638;2023-05-07T09:13:56;5.50;;;3.70;;
77091;SDS011;66032;48.252;11.638;2023-05-07T09:16:31;4.05;;;3.20;;
77091;SDS011;66032;48.252;11.638;2023-05-07T09:19:00;6.25;;;3.40;;
77091;SDS011;66032;48.252;11.638;2023-05-07T09:21:28;4.32;;;3.10;;
77091;SDS011;66032;48.252;11.638;2023-05-07T09:23:58;4.20;;;3.20;;
77091;SDS011;66032;48.252;11.638;2023-05-07T09:26:34;4.05;;;3.25;;
77091;SDS011;66032;48.252;11.638;2023-05-07T09:29:03;5.32;;;3.33;;
77091;SDS011;66032;48.252;11.638;2023-05-07T09:31:31;3.60;;;3.08;;
77091;SDS011;66032;48.252;11.638;2023-05-07T09:33:58;3.58;;;3.05;;
77091;SDS011;66032;48.252;11.638;2023-05-07T09:36:31;4.03;;;3.30;;
77091;SDS011;66032;48.252;11.638;2023-05-07T09:39:01;3.42;;;2.75;;
77091;SDS011;66032;48.252;11.638;2023-05-07T09:41:29;4.40;;;3.10;;
77091;SDS011;66032;48.252;11.638;2023-05-07T09:44:11;3.33;;;2.75;;
77091;SDS011;66032;48.252;11.638;2023-05-07T09:46:43;4.03;;;2.70;;
77091;SDS011;66032;48.252;11.638;2023-05-07T09:49:23;4.18;;;2.75;;
77091;SDS011;66032;48.252;11.638;2023-05-07T09:51:59;3.92;;;2.90;;
77091;SDS011;66032;48.252;11.638;2023-05-07T09:54:32;4.13;;;3.03;;
77091;SDS011;66032;48.252;11.638;2023-05-07T09:57:01;3.35;;;2.92;;
77091;SDS011;66032;48.252;11.638;2023-05-07T09:59:31;4.50;;;3.60;;
77091;SDS011;66032;48.252;11.638;2023-05-07T10:02:03;6.15;;;3.10;;
77091;SDS011;66032;48.252;11.638;2023-05-07T10:04:37;3.88;;;3.00;;
77091;SDS011;66032;48.252;11.638;2023-05-07T10:07:05;4.53;;;2.95;;
77091;SDS011;66032;48.252;11.638;2023-05-07T10:09:35;4.15;;;2.85;;
77091;SDS011;66032;48.252;11.638;2023-05-07T10:12:10;4.70;;;2.65;;
77091;SDS011;66032;48.252;11.638;2023-05-07T10:14:38;5.38;;;2.80;;
77091;SDS011;66032;48.252;11.638;2023-05-07T10:17:06;4.03;;;2.80;;
77091;SDS011;66032;48.252;11.638;2023-05-07T10:19:34;4.07;;;3.10;;
77091;SDS011;66032;48.252;11.638;2023-05-07T10:22:05;4.18;;;2.42;;
77091;SDS011;66032;48.252;11.638;2023-05-07T10:24:38;4.82;;;2.60;;
77091;SDS011;66032;48.252;11.638;2023-05-07T10:27:12;3.60;;;2.58;;
77091;SDS011;66032;48.252;11.638;2023-05-07T10:32:45;4.05;;;3.03;;
77091;SDS011;66032;48.252;11.638;2023-05-07T10:35:26;4.40;;;2.40;;
77091;SDS011;66032;48.252;11.638;2023-05-07T10:38:01;3.85;;;3.03;;
77091;SDS011;66032;48.252;11.638;2023-05-07T10:40:31;3.83;;;2.67;;
77091;SDS011;66032;48.252;11.638;2023-05-07T10:43:04;4.50;;;3.20;;
77091;SDS011;66032;48.252;11.638;2023-05-07T10:51:34;5.28;;;2.72;;
77091;SDS011;66032;48.252;11.638;2023-05-07T10:54:18;4.07;;;2.63;;
77091;SDS011;66032;48.252;11.638;2023-05-07T10:56:54;4.20;;;2.72;;
77091;SDS011;66032;48.252;11.638;2023-05-07T10:59:30;3.45;;;2.30;;
77091;SDS011;66032;48.252;11.638;2023-05-07T11:02:13;4.40;;;2.42;;
77091;SDS011;66032;48.252;11.638;2023-05-07T11:05:38;4.20;;;2.60;;
77091;SDS011;66032;48.252;11.638;2023-05-07T11:08:02;4.13;;;2.40;;
77091;SDS011;66032;48.252;11.638;2023-05-07T11:10:51;3.92;;;1.92;;
77091;SDS011;66032;48.252;11.638;2023-05-07T11:13:41;3.72;;;2.22;;
77091;SDS011;66032;48.252;11.638;2023-05-07T11:16:21;4.53;;;2.42;;
77091;SDS011;66032;48.252;11.638;2023-05-07T11:18:59;3.40;;;2.30;;
77091;SDS011;66032;48.252;11.638;2023-05-07T11:21:33;4.32;;;2.30;;
77091;SDS011;66032;48.252;11.638;2023-05-07T11:24:27;4.22;;;1.90;;
77091;SDS011;66032;48.252;11.638;2023-05-07T11:26:59;5.10;;;2.17;;
77091;SDS011;66032;48.252;11.638;2023-05-07T11:29:28;3.72;;;2.30;;
77091;SDS011;66032;48.252;11.638;2023-05-07T11:32:03;3.97;;;1.98;;
77091;SDS011;66032;48.252;11.638;2023-05-07T11:34:53;4.50;;;2.90;;
77091;SDS011;66032;48.252;11.638;2023-05-07T11:37:23;4.18;;;2.70;;
77091;SDS011;66032;48.252;11.638;2023-05-07T11:40:07;5.13;;;2.30;;
77091;SDS011;66032;48.252;11.638;2023-05-07T11:42:38;4.15;;;2.10;;
77091;SDS011;66032;48.252;11.638;2023-05-07T11:45:08;4.07;;;2.10;;
77091;SDS011;66032;48.252;11.638;2023-05-07T11:47:36;4.60;;;2.30;;
77091;SDS011;66032;48.252;11.638;2023-05-07T11:50:07;4.25;;;2.40;;
77091;SDS011;66032;48.252;11.638;2023-05-07T11:52:35;2.90;;;1.80;;
77091;SDS011;66032;48.252;11.638;2023-05-07T11:55:02;3.70;;;2.30;;
77091;SDS011;66032;48.252;11.638;2023-05-07T11:57:32;5.65;;;2.60;;
77091;SDS011;66032;48.252;11.638;2023-05-07T12:00:00;3.95;;;2.63;;
77091;SDS011;66032;48.252;11.638;2023-05-07T12:02:37;3.38;;;2.25;;
77091;SDS011;66032;48.252;11.638;2023-05-07T12:05:05;4.13;;;2.00;;
77091;SDS011;66032;48.252;11.638;2023-05-07T12:07:33;3.50;;;2.33;;
77091;SDS011;66032;48.252;11.638;2023-05-07T12:10:05;2.97;;;2.00;;
77091;SDS011;66032;48.252;11.638;2023-05-07T12:12:45;4.38;;;1.90;;
77091;SDS011;66032;48.252;11.638;2023-05-07T12:15:17;2.47;;;1.77;;
77091;SDS011;66032;48.252;11.638;2023-05-07T12:17:44;3.13;;;2.00;;
77091;SDS011;66032;48.252;11.638;2023-05-07T12:20:11;3.13;;;2.13;;
77091;SDS011;66032;48.252;11.638;2023-05-07T12:22:40;3.85;;;2.28;;
77091;SDS011;66032;48.252;11.638;2023-05-07T12:25:07;5.57;;;2.40;;
77091;SDS011;66032;48.252;11.638;2023-05-07T12:27:38;4.07;;;2.92;;
77091;SDS011;66032;48.252;11.638;2023-05-07T12:30:09;5.43;;;2.60;;
77091;SDS011;66032;48.252;11.638;2023-05-07T12:32:37;4.97;;;2.95;;
77091;SDS011;66032;48.252;11.638;2023-05-07T12:35:05;5.38;;;3.17;;
77091;SDS011;66032;48.252;11.638;2023-05-07T12:37:33;4.20;;;2.90;;
77091;SDS011;66032;48.252;11.638;2023-05-07T12:40:03;3.70;;;2.95;;
77091;SDS011;66032;48.252;11.638;2023-05-07T12:42:37;4.32;;;3.20;;
77091;SDS011;66032;48.252;11.638;2023-05-07T12:45:10;4.15;;;3.30;;
77091;SDS011;66032;48.252;11.638;2023-05-07T12:47:43;5.03;;;3.10;;
77091;SDS011;66032;48.252;11.638;2023-05-07T12:50:14;4.05;;;3.00;;
77091;SDS011;66032;48.252;11.638;2023-05-07T12:52:43;3.53;;;2.78;;
77091;SDS011;66032;48.252;11.638;2023-05-07T12:55:14;4.30;;;3.00;;
77091;SDS011;66032;48.252;11.638;2023-05-07T12:57:43;5.38;;;3.55;;
77091;SDS011;66032;48.252;11.638;2023-05-07T13:00:40;4.88;;;3.28;;
77091;SDS011;66032;48.252;11.638;2023-05-07T13:03:10;4.65;;;3.30;;
77091;SDS011;66032;48.252;11.638;2023-05-07T13:05:38;5.30;;;3.75;;
77091;SDS011;66032;48.252;11.638;2023-05-07T13:08:05;5.28;;;3.78;;
77091;SDS011;66032;48.252;11.638;2023-05-07T13:10:36;5.68;;;3.88;;
77091;SDS011;66032;48.252;11.638;2023-05-07T13:13:03;5.13;;;3.72;;
77091;SDS011;66032;48.252;11.638;2023-05-07T13:15:31;4.63;;;3.40;;
77091;SDS011;66032;48.252;11.638;2023-05-07T13:17:58;6.28;;;3.40;;
77091;SDS011;66032;48.252;11.638;2023-05-07T13:20:25;4.45;;;3.60;;
77091;SDS011;66032;48.252;11.638;2023-05-07T13:22:52;4.95;;;3.60;;
77091;SDS011;66032;48.252;11.638;2023-05-07T13:25:20;5.50;;;3.70;;
77091;SDS011;66032;48.252;11.638;2023-05-07T13:27:47;5.72;;;3.10;;
77091;SDS011;66032;48.252;11.638;2023-05-07T13:30:29;5.63;;;3.85;;
77091;SDS011;66032;48.252;11.638;2023-05-07T13:32:57;4.22;;;3.30;;
77091;SDS011;66032;48.252;11.638;2023-05-07T13:35:24;4.63;;;3.53;;
77091;SDS011;66032;48.252;11.638;2023-05-07T13:37:51;5.32;;;3.50;;
77091;SDS011;66032;48.252;11.638;2023-05-07T13:40:19;4.32;;;3.22;;
77091;SDS011;66032;48.252;11.638;2023-05-07T13:42:46;4.55;;;3.33;;
77091;SDS011;66032;48.252;11.638;2023-05-07T13:45:13;4.57;;;3.25;;
77091;SDS011;66032;48.252;11.638;2023-05-07T13:47:44;3.85;;;3.00;;
77091;SDS011;66032;48.252;11.638;2023-05-07T13:50:12;4.40;;;2.80;;
77091;SDS011;66032;48.252;11.638;2023-05-07T13:52:43;3.75;;;2.80;;
77091;SDS011;66032;48.252;11.638;2023-05-07T13:55:17;4.03;;;3.10;;
77091;SDS011;66032;48.252;11.638;2023-05-07T13:57:45;5.63;;;2.75;;
77091;SDS011;66032;48.252;11.638;2023-05-07T14:00:13;4.93;;;2.83;;
77091;SDS011;66032;48.252;11.638;2023-05-07T14:02:41;3.78;;;2.67;;
77091;SDS011;66032;48.252;11.638;2023-05-07T14:05:08;3.90;;;2.75;;
77091;SDS011;66032;48.252;11.638;2023-05-07T14:07:37;4.70;;;2.78;;
77091;SDS011;66032;48.252;11.638;2023-05-07T14:10:04;3.92;;;2.50;;
77091;SDS011;66032;48.252;11.638;2023-05-07T14:12:32;3.58;;;2.53;;
77091;SDS011;66032;48.252;11.638;2023-05-07T14:15:00;3.65;;;2.70;;
77091;SDS011;66032;48.252;11.638;2023-05-07T14:17:27;3.33;;;2.40;;
77091;SDS011;66032;48.252;11.638;2023-05-07T14:19:54;4.05;;;2.40;;
77091;SDS011;66032;48.252;11.638;2023-05-07T14:22:22;3.25;;;2.58;;
77091;SDS011;66032;48.252;11.638;2023-05-07T14:24:49;4.60;;;2.80;;
77091;SDS011;66032;48.252;11.638;2023-05-07T14:27:32;3.70;;;2.53;;
77091;SDS011;66032;48.252;11.638;2023-05-07T14:29:59;3.85;;;2.50;;
77091;SDS011;66032;48.252;11.638;2023-05-07T14:32:26;3.58;;;2.35;;
77091;SDS011;66032;48.252;11.638;2023-05-07T14:34:54;4.22;;;2.50;;
77091;SDS011;66032;48.252;11.638;2023-05-07T14:37:21;4.10;;;2.30;;
77091;SDS011;66032;48.252;11.638;2023-05-07T14:39:48;3.28;;;2.30;;
77091;SDS011;66032;48.252;11.638;2023-05-07T14:42:16;4.13;;;2.50;;
77091;SDS011;66032;48.252;11.638;2023-05-07T14:44:46;4.47;;;2.40;;
77091;SDS011;66032;48.252;11.638;2023-05-07T14:47:15;4.53;;;2.20;;
77091;SDS011;66032;48.252;11.638;2023-05-07T14:49:45;3.33;;;2.30;;
77091;SDS011;66032;48.252;11.638;2023-05-07T14:52:12;3.53;;;2.30;;
77091;SDS011;66032;48.252;11.638;2023-05-07T14:54:40;3.80;;;2.42;;
77091;SDS011;66032;48.252;11.638;2023-05-07T14:57:08;3.30;;;2.20;;
77091;SDS011;66032;48.252;11.638;2023-05-07T14:59:37;3.88;;;2.17;;